sensor_id;sensor_type;location;lat;lon;timestamp;P1;durP1;ratioP1;P2;durP2;ratioP2
49590;SDS011;35496;-21.974;-46.800;2023-07-13T00:08:37;7.35;;;2.72;;
49590;SDS011;35496;-21.974;-46.800;2023-07-13T00:11:06;6.43;;;2.38;;
49590;SDS011;35496;-21.974;-46.800;2023-07-13T00:13:42;7.28;;;2.40;;
49590;SDS011;35496;-21.974;-46.800;2023-07-13T00:16:28;9.95;;;2.35;;
49590;SDS011;35496;-21.974;-46.800;2023-07-13T00:19:04;6.15;;;2.47;;
49590;SDS011;35496;-21.974;-46.800;2023-07-13T00:21:57;7.38;;;3.22;;
49590;SDS011;35496;-21.974;-46.800;2023-07-13T00:24:58;11.02;;;2.28;;
49590;SDS011;35496;-21.974;-46.800;2023-07-13T00:27:41;5.90;;;2.22;;
49590;SDS011;35496;-21.974;-46.800;2023-07-13T00:30:17;3.80;;;2.63;;
49590;SDS011;35496;-21.974;-46.800;2023-07-13T00:33:25;5.93;;;2.30;;
49590;SDS011;35496;-21.974;-46.800;2023-07-13T00:35:57;6.07;;;2.90;;
49590;SDS011;35496;-21.974;-46.800;2023-07-13T00:38:30;10.60;;;3.30;;
49590;SDS011;35496;-21.974;-46.800;2023-07-13T00:41:14;12.38;;;3.70;;
49590;SDS011;35496;-21.974;-46.800;2023-07-13T00:44:08;6.65;;;2.40;;
49590;SDS011;35496;-21.974;-46.800;2023-07-13T00:49:48;9.55;;;3.35;;
49590;SDS011;35496;-21.974;-46.800;2023-07-13T00:52:24;7.28;;;2.78;;
49590;SDS011;35496;-21.974;-46.800;2023-07-13T00:54:57;19.55;;;3.45;;
49590;SDS011;35496;-21.974;-46.800;2023-07-13T00:57:42;4.55;;;2.70;;
49590;SDS011;35496;-21.974;-46.800;2023-07-13T01:00:18;8.57;;;3.00;;
49590;SDS011;35496;-21.974;-46.800;2023-07-13T01:03:10;6.00;;;2.08;;
49590;SDS011;35496;-21.974;-46.800;2023-07-13T01:05:39;3.30;;;2.10;;
49590;SDS011;35496;-21.974;-46.800;2023-07-13T01:11:08;5.80;;;2.85;;
49590;SDS011;35496;-21.974;-46.800;2023-07-13T01:13:44;5.35;;;1.77;;
49590;SDS011;35496;-21.974;-46.800;2023-07-13T01:16:36;8.77;;;3.13;;
49590;SDS011;35496;-21.974;-46.800;2023-07-13T01:19:47;9.32;;;2.50;;
49590;SDS011;35496;-21.974;-46.800;2023-07-13T01:22:22;6.30;;;2.65;;
49590;SDS011;35496;-21.974;-46.800;2023-07-13T01:25:26;3.92;;;2.80;;
49590;SDS011;35496;-21.974;-46.800;2023-07-13T01:28:07;1.63;;;1.35;;
49590;SDS011;35496;-21.974;-46.800;2023-07-13T01:30:56;13.60;;;3.80;;
49590;SDS011;35496;-21.974;-46.800;2023-07-13T01:33:58;12.90;;;3.58;;
49590;SDS011;35496;-21.974;-46.800;2023-07-13T01:39:27;9.65;;;2.58;;
49590;SDS011;35496;-21.974;-46.800;2023-07-13T01:42:03;6.03;;;2.28;;
49590;SDS011;35496;-21.974;-46.800;2023-07-13T01:44:38;8.70;;;1.98;;
49590;SDS011;35496;-21.974;-46.800;2023-07-13T01:47:19;5.97;;;1.92;;
49590;SDS011;35496;-21.974;-46.800;2023-07-13T01:50:10;8.32;;;2.33;;
49590;SDS011;35496;-21.974;-46.800;2023-07-13T01:52:42;3.20;;;1.92;;
49590;SDS011;35496;-21.974;-46.800;2023-07-13T02:01:29;11.15;;;3.20;;
49590;SDS011;35496;-21.974;-46.800;2023-07-13T02:03:58;13.82;;;2.63;;
49590;SDS011;35496;-21.974;-46.800;2023-07-13T02:06:36;6.32;;;2.85;;
49590;SDS011;35496;-21.974;-46.800;2023-07-13T02:09:18;5.80;;;1.92;;
49590;SDS011;35496;-21.974;-46.800;2023-07-13T02:11:58;2.42;;;2.20;;
49590;SDS011;35496;-21.974;-46.800;2023-07-13T02:14:33;7.03;;;2.00;;
49590;SDS011;35496;-21.974;-46.800;2023-07-13T02:17:19;10.52;;;2.47;;
49590;SDS011;35496;-21.974;-46.800;2023-07-13T02:19:52;4.32;;;2.38;;
49590;SDS011;35496;-21.974;-46.800;2023-07-13T02:22:31;8.48;;;2.85;;
49590;SDS011;35496;-21.974;-46.800;2023-07-13T02:25:15;5.53;;;1.95;;
49590;SDS011;35496;-21.974;-46.800;2023-07-13T02:28:04;8.13;;;2.03;;
49590;SDS011;35496;-21.974;-46.800;2023-07-13T02:30:36;6.55;;;3.30;;
49590;SDS011;35496;-21.974;-46.800;2023-07-13T02:33:11;5.97;;;2.30;;
49590;SDS011;35496;-21.974;-46.800;2023-07-13T02:35:42;4.00;;;1.90;;
49590;SDS011;35496;-21.974;-46.800;2023-07-13T02:38:12;5.68;;;2.50;;
49590;SDS011;35496;-21.974;-46.800;2023-07-13T02:41:05;4.85;;;2.20;;
49590;SDS011;35496;-21.974;-46.800;2023-07-13T02:44:09;4.70;;;1.75;;
49590;SDS011;35496;-21.974;-46.800;2023-07-13T02:49:53;3.85;;;2.05;;
49590;SDS011;35496;-21.974;-46.800;2023-07-13T02:52:37;10.25;;;2.53;;
49590;SDS011;35496;-21.974;-46.800;2023-07-13T03:00:45;1.98;;;1.50;;
49590;SDS011;35496;-21.974;-46.800;2023-07-13T03:03:36;3.03;;;1.48;;
49590;SDS011;35496;-21.974;-46.800;2023-07-13T03:06:18;7.72;;;2.72;;
49590;SDS011;35496;-21.974;-46.800;2023-07-13T03:09:02;3.63;;;2.38;;
49590;SDS011;35496;-21.974;-46.800;2023-07-13T03:11:35;9.63;;;2.28;;
49590;SDS011;35496;-21.974;-46.800;2023-07-13T03:14:27;7.30;;;2.70;;
49590;SDS011;35496;-21.974;-46.800;2023-07-13T03:17:00;4.63;;;1.65;;
49590;SDS011;35496;-21.974;-46.800;2023-07-13T03:22:22;3.88;;;2.03;;
49590;SDS011;35496;-21.974;-46.800;2023-07-13T03:25:00;3.03;;;2.10;;
49590;SDS011;35496;-21.974;-46.800;2023-07-13T03:30:29;5.70;;;1.80;;
49590;SDS011;35496;-21.974;-46.800;2023-07-13T03:33:04;17.35;;;2.25;;
49590;SDS011;35496;-21.974;-46.800;2023-07-13T03:35:43;5.75;;;2.65;;
49590;SDS011;35496;-21.974;-46.800;2023-07-13T03:38:19;4.75;;;1.58;;
49590;SDS011;35496;-21.974;-46.800;2023-07-13T03:40:52;4.85;;;1.77;;
49590;SDS011;35496;-21.974;-46.800;2023-07-13T03:46:20;5.68;;;1.67;;
49590;SDS011;35496;-21.974;-46.800;2023-07-13T03:48:52;3.80;;;1.95;;
49590;SDS011;35496;-21.974;-46.800;2023-07-13T03:54:17;4.45;;;2.08;;
49590;SDS011;35496;-21.974;-46.800;2023-07-13T03:56:52;8.80;;;1.80;;
49590;SDS011;35496;-21.974;-46.800;2023-07-13T03:59:21;5.45;;;1.52;;
49590;SDS011;35496;-21.974;-46.800;2023-07-13T04:01:47;2.53;;;1.80;;
49590;SDS011;35496;-21.974;-46.800;2023-07-13T04:04:14;9.32;;;2.17;;
49590;SDS011;35496;-21.974;-46.800;2023-07-13T04:06:41;3.72;;;2.05;;
49590;SDS011;35496;-21.974;-46.800;2023-07-13T04:09:07;6.53;;;2.17;;
49590;SDS011;35496;-21.974;-46.800;2023-07-13T04:11:35;3.70;;;2.03;;
49590;SDS011;35496;-21.974;-46.800;2023-07-13T04:14:04;6.15;;;2.28;;
49590;SDS011;35496;-21.974;-46.800;2023-07-13T04:16:30;8.32;;;2.55;;
49590;SDS011;35496;-21.974;-46.800;2023-07-13T04:18:57;6.35;;;2.83;;
49590;SDS011;35496;-21.974;-46.800;2023-07-13T04:21:29;3.50;;;2.33;;
49590;SDS011;35496;-21.974;-46.800;2023-07-13T04:23:55;4.90;;;1.75;;
49590;SDS011;35496;-21.974;-46.800;2023-07-13T04:26:22;7.22;;;2.05;;
49590;SDS011;35496;-21.974;-46.800;2023-07-13T04:28:49;4.50;;;2.40;;
49590;SDS011;35496;-21.974;-46.800;2023-07-13T04:31:15;5.40;;;2.40;;
49590;SDS011;35496;-21.974;-46.800;2023-07-13T04:33:41;5.07;;;2.53;;
49590;SDS011;35496;-21.974;-46.800;2023-07-13T04:36:08;9.18;;;2.70;;
49590;SDS011;35496;-21.974;-46.800;2023-07-13T04:38:34;13.30;;;1.90;;
49590;SDS011;35496;-21.974;-46.800;2023-07-13T04:41:05;6.65;;;2.42;;
49590;SDS011;35496;-21.974;-46.800;2023-07-13T04:43:32;3.10;;;2.38;;
49590;SDS011;35496;-21.974;-46.800;2023-07-13T04:46:03;5.32;;;2.08;;
49590;SDS011;35496;-21.974;-46.800;2023-07-13T04:48:29;3.63;;;1.73;;
49590;SDS011;35496;-21.974;-46.800;2023-07-13T04:50:56;3.85;;;2.70;;
49590;SDS011;35496;-21.974;-46.800;2023-07-13T04:53:22;6.85;;;3.13;;
49590;SDS011;35496;-21.974;-46.800;2023-07-13T04:55:48;7.30;;;1.98;;
49590;SDS011;35496;-21.974;-46.800;2023-07-13T04:58:14;10.02;;;2.63;;
49590;SDS011;35496;-21.974;-46.800;2023-07-13T05:00:40;6.10;;;1.63;;
49590;SDS011;35496;-21.974;-46.800;2023-07-13T05:03:06;5.05;;;2.35;;
49590;SDS011;35496;-21.974;-46.800;2023-07-13T05:05:32;3.05;;;1.42;;
49590;SDS011;35496;-21.974;-46.800;2023-07-13T05:07:59;5.28;;;2.25;;
49590;SDS011;35496;-21.974;-46.800;2023-07-13T05:10:25;6.43;;;2.40;;
49590;SDS011;35496;-21.974;-46.800;2023-07-13T05:12:51;9.95;;;1.90;;
49590;SDS011;35496;-21.974;-46.800;2023-07-13T05:15:18;3.17;;;1.85;;
49590;SDS011;35496;-21.974;-46.800;2023-07-13T05:17:47;2.78;;;1.90;;
49590;SDS011;35496;-21.974;-46.800;2023-07-13T05:20:13;3.97;;;1.90;;
49590;SDS011;35496;-21.974;-46.800;2023-07-13T05:22:39;4.40;;;1.67;;
49590;SDS011;35496;-21.974;-46.800;2023-07-13T05:25:06;4.85;;;2.05;;
49590;SDS011;35496;-21.974;-46.800;2023-07-13T05:27:32;3.28;;;1.88;;
49590;SDS011;35496;-21.974;-46.800;2023-07-13T05:29:58;1.98;;;1.15;;
49590;SDS011;35496;-21.974;-46.800;2023-07-13T05:32:24;4.88;;;2.03;;
49590;SDS011;35496;-21.974;-46.800;2023-07-13T05:34:50;4.72;;;1.60;;
49590;SDS011;35496;-21.974;-46.800;2023-07-13T05:37:16;2.58;;;1.33;;
49590;SDS011;35496;-21.974;-46.800;2023-07-13T05:39:43;2.70;;;1.42;;
49590;SDS011;35496;-21.974;-46.800;2023-07-13T05:42:09;2.47;;;2.28;;
49590;SDS011;35496;-21.974;-46.800;2023-07-13T05:44:35;1.65;;;1.50;;
49590;SDS011;35496;-21.974;-46.800;2023-07-13T05:47:01;1.98;;;1.80;;
49590;SDS011;35496;-21.974;-46.800;2023-07-13T05:49:27;8.07;;;2.00;;
49590;SDS011;35496;-21.974;-46.800;2023-07-13T05:51:55;5.00;;;2.13;;
49590;SDS011;35496;-21.974;-46.800;2023-07-13T05:54:22;5.07;;;1.25;;
49590;SDS011;35496;-21.974;-46.800;2023-07-13T05:56:48;6.13;;;2.40;;
49590;SDS011;35496;-21.974;-46.800;2023-07-13T05:59:14;3.28;;;1.88;;
49590;SDS011;35496;-21.974;-46.800;2023-07-13T06:01:40;6.60;;;2.08;;
49590;SDS011;35496;-21.974;-46.800;2023-07-13T06:04:06;3.03;;;1.77;;
49590;SDS011;35496;-21.974;-46.800;2023-07-13T06:06:33;2.47;;;1.80;;
49590;SDS011;35496;-21.974;-46.800;2023-07-13T06:08:59;6.63;;;1.88;;
49590;SDS011;35496;-21.974;-46.800;2023-07-13T06:11:26;12.02;;;2.53;;
49590;SDS011;35496;-21.974;-46.800;2023-07-13T06:13:52;2.88;;;1.13;;
49590;SDS011;35496;-21.974;-46.800;2023-07-13T06:16:19;5.13;;;1.67;;
49590;SDS011;35496;-21.974;-46.800;2023-07-13T06:18:45;3.33;;;1.58;;
49590;SDS011;35496;-21.974;-46.800;2023-07-13T06:21:15;6.63;;;2.47;;
49590;SDS011;35496;-21.974;-46.800;2023-07-13T06:23:42;3.30;;;1.35;;
49590;SDS011;35496;-21.974;-46.800;2023-07-13T06:26:08;9.18;;;2.30;;
49590;SDS011;35496;-21.974;-46.800;2023-07-13T06:28:35;3.53;;;1.40;;
49590;SDS011;35496;-21.974;-46.800;2023-07-13T06:31:01;3.33;;;1.67;;
49590;SDS011;35496;-21.974;-46.800;2023-07-13T06:33:27;4.72;;;1.95;;
49590;SDS011;35496;-21.974;-46.800;2023-07-13T06:35:53;8.75;;;2.40;;
49590;SDS011;35496;-21.974;-46.800;2023-07-13T06:38:20;6.10;;;1.45;;
49590;SDS011;35496;-21.974;-46.800;2023-07-13T06:40:46;4.80;;;1.60;;
49590;SDS011;35496;-21.974;-46.800;2023-07-13T06:43:12;7.05;;;2.15;;
49590;SDS011;35496;-21.974;-46.800;2023-07-13T06:45:43;6.05;;;1.98;;
49590;SDS011;35496;-21.974;-46.800;2023-07-13T06:50:36;5.05;;;1.60;;
49590;SDS011;35496;-21.974;-46.800;2023-07-13T06:53:02;3.10;;;1.55;;
49590;SDS011;35496;-21.974;-46.800;2023-07-13T06:55:28;2.28;;;1.35;;
49590;SDS011;35496;-21.974;-46.800;2023-07-13T06:57:55;7.15;;;2.55;;
49590;SDS011;35496;-21.974;-46.800;2023-07-13T07:00:21;5.07;;;2.47;;
49590;SDS011;35496;-21.974;-46.800;2023-07-13T07:02:47;3.22;;;1.65;;
49590;SDS011;35496;-21.974;-46.800;2023-07-13T07:05:13;17.80;;;3.03;;
49590;SDS011;35496;-21.974;-46.800;2023-07-13T07:07:39;7.18;;;2.28;;
49590;SDS011;35496;-21.974;-46.800;2023-07-13T07:10:05;3.67;;;2.33;;
49590;SDS011;35496;-21.974;-46.800;2023-07-13T07:12:31;6.88;;;1.83;;
49590;SDS011;35496;-21.974;-46.800;2023-07-13T07:14:57;11.65;;;1.60;;
49590;SDS011;35496;-21.974;-46.800;2023-07-13T07:17:23;4.05;;;1.63;;
49590;SDS011;35496;-21.974;-46.800;2023-07-13T07:19:50;5.15;;;1.98;;
49590;SDS011;35496;-21.974;-46.800;2023-07-13T07:22:16;8.02;;;2.65;;
49590;SDS011;35496;-21.974;-46.800;2023-07-13T07:24:42;3.70;;;2.28;;
49590;SDS011;35496;-21.974;-46.800;2023-07-13T07:27:08;3.15;;;1.63;;
49590;SDS011;35496;-21.974;-46.800;2023-07-13T07:29:34;2.22;;;1.27;;
49590;SDS011;35496;-21.974;-46.800;2023-07-13T07:32:00;3.92;;;1.50;;
49590;SDS011;35496;-21.974;-46.800;2023-07-13T07:34:26;3.22;;;2.00;;
49590;SDS011;35496;-21.974;-46.800;2023-07-13T07:36:53;3.13;;;1.70;;
49590;SDS011;35496;-21.974;-46.800;2023-07-13T07:39:19;3.58;;;2.03;;
49590;SDS011;35496;-21.974;-46.800;2023-07-13T07:41:45;2.63;;;1.90;;
49590;SDS011;35496;-21.974;-46.800;2023-07-13T07:44:11;1.73;;;1.35;;
49590;SDS011;35496;-21.974;-46.800;2023-07-13T07:46:38;3.22;;;1.30;;
49590;SDS011;35496;-21.974;-46.800;2023-07-13T07:49:08;4.50;;;1.52;;
49590;SDS011;35496;-21.974;-46.800;2023-07-13T07:51:34;6.63;;;1.50;;
49590;SDS011;35496;-21.974;-46.800;2023-07-13T07:54:00;3.80;;;2.33;;
49590;SDS011;35496;-21.974;-46.800;2023-07-13T07:56:26;7.03;;;2.72;;
49590;SDS011;35496;-21.974;-46.800;2023-07-13T07:58:52;5.78;;;2.22;;
49590;SDS011;35496;-21.974;-46.800;2023-07-13T08:01:18;11.75;;;1.92;;
49590;SDS011;35496;-21.974;-46.800;2023-07-13T08:03:44;3.38;;;1.20;;
49590;SDS011;35496;-21.974;-46.800;2023-07-13T08:06:10;4.35;;;1.60;;
49590;SDS011;35496;-21.974;-46.800;2023-07-13T08:08:36;6.82;;;1.25;;
49590;SDS011;35496;-21.974;-46.800;2023-07-13T08:11:03;8.07;;;1.73;;
49590;SDS011;35496;-21.974;-46.800;2023-07-13T08:13:29;7.18;;;2.70;;
49590;SDS011;35496;-21.974;-46.800;2023-07-13T08:15:55;15.25;;;4.20;;
49590;SDS011;35496;-21.974;-46.800;2023-07-13T08:18:21;30.67;;;4.43;;
49590;SDS011;35496;-21.974;-46.800;2023-07-13T08:20:47;13.85;;;3.58;;
49590;SDS011;35496;-21.974;-46.800;2023-07-13T08:23:13;14.30;;;3.20;;
49590;SDS011;35496;-21.974;-46.800;2023-07-13T08:25:40;10.55;;;3.38;;
49590;SDS011;35496;-21.974;-46.800;2023-07-13T08:28:06;15.40;;;3.25;;
49590;SDS011;35496;-21.974;-46.800;2023-07-13T08:30:32;9.80;;;2.67;;
49590;SDS011;35496;-21.974;-46.800;2023-07-13T08:32:58;8.57;;;2.72;;
49590;SDS011;35496;-21.974;-46.800;2023-07-13T08:35:24;9.15;;;3.30;;
49590;SDS011;35496;-21.974;-46.800;2023-07-13T08:37:51;11.50;;;4.20;;
49590;SDS011;35496;-21.974;-46.800;2023-07-13T08:40:17;9.10;;;4.05;;
49590;SDS011;35496;-21.974;-46.800;2023-07-13T08:42:45;14.65;;;3.00;;
49590;SDS011;35496;-21.974;-46.800;2023-07-13T08:47:49;6.25;;;3.08;;
49590;SDS011;35496;-21.974;-46.800;2023-07-13T08:50:19;6.73;;;3.67;;
49590;SDS011;35496;-21.974;-46.800;2023-07-13T08:52:46;15.23;;;3.85;;
49590;SDS011;35496;-21.974;-46.800;2023-07-13T08:55:16;11.38;;;3.97;;
49590;SDS011;35496;-21.974;-46.800;2023-07-13T08:57:43;8.63;;;3.80;;
49590;SDS011;35496;-21.974;-46.800;2023-07-13T09:00:11;8.85;;;3.90;;
49590;SDS011;35496;-21.974;-46.800;2023-07-13T09:05:14;10.38;;;3.58;;
49590;SDS011;35496;-21.974;-46.800;2023-07-13T09:10:15;5.47;;;3.13;;
49590;SDS011;35496;-21.974;-46.800;2023-07-13T09:12:46;8.57;;;3.63;;
49590;SDS011;35496;-21.974;-46.800;2023-07-13T09:15:37;11.77;;;3.85;;
49590;SDS011;35496;-21.974;-46.800;2023-07-13T09:18:08;6.90;;;3.55;;
49590;SDS011;35496;-21.974;-46.800;2023-07-13T09:20:37;20.20;;;3.75;;
49590;SDS011;35496;-21.974;-46.800;2023-07-13T09:23:05;12.80;;;3.50;;
49590;SDS011;35496;-21.974;-46.800;2023-07-13T09:25:32;8.95;;;3.25;;
49590;SDS011;35496;-21.974;-46.800;2023-07-13T09:28:12;7.82;;;3.83;;
49590;SDS011;35496;-21.974;-46.800;2023-07-13T09:30:50;5.13;;;3.40;;
49590;SDS011;35496;-21.974;-46.800;2023-07-13T09:33:20;10.38;;;3.92;;
49590;SDS011;35496;-21.974;-46.800;2023-07-13T09:35:46;9.82;;;5.20;;
49590;SDS011;35496;-21.974;-46.800;2023-07-13T09:43:04;12.40;;;3.55;;
49590;SDS011;35496;-21.974;-46.800;2023-07-13T09:45:33;8.40;;;3.60;;
49590;SDS011;35496;-21.974;-46.800;2023-07-13T09:48:00;10.07;;;4.38;;
49590;SDS011;35496;-21.974;-46.800;2023-07-13T09:50:29;11.40;;;4.30;;
49590;SDS011;35496;-21.974;-46.800;2023-07-13T09:52:55;11.77;;;4.47;;
49590;SDS011;35496;-21.974;-46.800;2023-07-13T09:57:56;9.75;;;4.80;;
49590;SDS011;35496;-21.974;-46.800;2023-07-13T10:00:24;5.72;;;4.45;;
49590;SDS011;35496;-21.974;-46.800;2023-07-13T10:05:25;9.77;;;4.07;;
49590;SDS011;35496;-21.974;-46.800;2023-07-13T10:07:52;16.65;;;4.45;;
49590;SDS011;35496;-21.974;-46.800;2023-07-13T10:10:22;11.13;;;4.22;;
49590;SDS011;35496;-21.974;-46.800;2023-07-13T10:12:49;10.85;;;4.05;;
49590;SDS011;35496;-21.974;-46.800;2023-07-13T10:15:19;15.60;;;3.88;;
49590;SDS011;35496;-21.974;-46.800;2023-07-13T10:17:46;13.60;;;3.92;;
49590;SDS011;35496;-21.974;-46.800;2023-07-13T10:20:12;8.68;;;4.10;;
49590;SDS011;35496;-21.974;-46.800;2023-07-13T10:25:19;4.35;;;3.03;;
49590;SDS011;35496;-21.974;-46.800;2023-07-13T10:27:46;7.60;;;3.42;;
49590;SDS011;35496;-21.974;-46.800;2023-07-13T10:30:19;15.55;;;4.60;;
49590;SDS011;35496;-21.974;-46.800;2023-07-13T10:32:45;10.32;;;3.90;;
49590;SDS011;35496;-21.974;-46.800;2023-07-13T10:35:13;17.00;;;5.15;;
49590;SDS011;35496;-21.974;-46.800;2023-07-13T10:37:45;9.60;;;3.38;;
49590;SDS011;35496;-21.974;-46.800;2023-07-13T10:40:14;8.52;;;4.05;;
49590;SDS011;35496;-21.974;-46.800;2023-07-13T10:42:45;6.45;;;3.25;;
49590;SDS011;35496;-21.974;-46.800;2023-07-13T10:45:15;40.10;;;4.47;;
49590;SDS011;35496;-21.974;-46.800;2023-07-13T10:47:43;12.20;;;4.28;;
49590;SDS011;35496;-21.974;-46.800;2023-07-13T10:50:13;10.18;;;4.47;;
49590;SDS011;35496;-21.974;-46.800;2023-07-13T10:52:42;10.43;;;3.35;;
49590;SDS011;35496;-21.974;-46.800;2023-07-13T10:57:53;13.70;;;3.95;;
49590;SDS011;35496;-21.974;-46.800;2023-07-13T11:00:19;16.02;;;4.68;;
49590;SDS011;35496;-21.974;-46.800;2023-07-13T11:02:55;11.32;;;3.95;;
49590;SDS011;35496;-21.974;-46.800;2023-07-13T11:05:32;10.07;;;3.47;;
49590;SDS011;35496;-21.974;-46.800;2023-07-13T11:08:04;8.10;;;4.43;;
49590;SDS011;35496;-21.974;-46.800;2023-07-13T11:11:00;10.63;;;3.80;;
49590;SDS011;35496;-21.974;-46.800;2023-07-13T11:18:40;26.13;;;5.40;;
49590;SDS011;35496;-21.974;-46.800;2023-07-13T11:21:15;10.23;;;4.22;;
49590;SDS011;35496;-21.974;-46.800;2023-07-13T11:23:42;10.50;;;3.95;;
49590;SDS011;35496;-21.974;-46.800;2023-07-13T11:28:54;7.25;;;2.92;;
49590;SDS011;35496;-21.974;-46.800;2023-07-13T11:31:20;11.73;;;4.57;;
49590;SDS011;35496;-21.974;-46.800;2023-07-13T11:33:52;12.88;;;4.65;;
49590;SDS011;35496;-21.974;-46.800;2023-07-13T11:36:19;7.85;;;4.13;;
49590;SDS011;35496;-21.974;-46.800;2023-07-13T11:41:27;10.43;;;4.25;;
49590;SDS011;35496;-21.974;-46.800;2023-07-13T11:43:55;12.80;;;5.53;;
49590;SDS011;35496;-21.974;-46.800;2023-07-13T11:46:22;9.98;;;3.83;;
49590;SDS011;35496;-21.974;-46.800;2023-07-13T11:48:49;12.00;;;4.25;;
49590;SDS011;35496;-21.974;-46.800;2023-07-13T11:53:53;14.55;;;4.80;;
49590;SDS011;35496;-21.974;-46.800;2023-07-13T11:56:19;13.30;;;4.40;;
49590;SDS011;35496;-21.974;-46.800;2023-07-13T11:58:48;12.18;;;4.60;;
49590;SDS011;35496;-21.974;-46.800;2023-07-13T12:01:27;15.45;;;4.13;;
49590;SDS011;35496;-21.974;-46.800;2023-07-13T12:04:08;12.50;;;3.22;;
49590;SDS011;35496;-21.974;-46.800;2023-07-13T12:06:38;8.43;;;3.47;;
49590;SDS011;35496;-21.974;-46.800;2023-07-13T12:09:13;13.57;;;3.85;;
49590;SDS011;35496;-21.974;-46.800;2023-07-13T12:11:41;13.15;;;3.42;;
49590;SDS011;35496;-21.974;-46.800;2023-07-13T12:14:17;16.77;;;3.50;;
49590;SDS011;35496;-21.974;-46.800;2023-07-13T12:16:44;15.93;;;4.30;;
49590;SDS011;35496;-21.974;-46.800;2023-07-13T12:21:42;6.40;;;2.80;;
49590;SDS011;35496;-21.974;-46.800;2023-07-13T12:24:16;5.57;;;2.58;;
49590;SDS011;35496;-21.974;-46.800;2023-07-13T12:26:43;6.82;;;2.70;;
49590;SDS011;35496;-21.974;-46.800;2023-07-13T12:29:11;6.50;;;3.83;;
49590;SDS011;35496;-21.974;-46.800;2023-07-13T12:34:08;4.38;;;2.70;;
49590;SDS011;35496;-21.974;-46.800;2023-07-13T12:36:38;8.20;;;2.10;;
49590;SDS011;35496;-21.974;-46.800;2023-07-13T12:41:40;10.07;;;2.08;;
49590;SDS011;35496;-21.974;-46.800;2023-07-13T12:44:10;4.65;;;2.95;;
49590;SDS011;35496;-21.974;-46.800;2023-07-13T12:46:37;9.55;;;4.10;;
49590;SDS011;35496;-21.974;-46.800;2023-07-13T12:49:05;23.20;;;4.18;;
49590;SDS011;35496;-21.974;-46.800;2023-07-13T12:51:32;6.75;;;2.58;;
49590;SDS011;35496;-21.974;-46.800;2023-07-13T12:54:17;4.25;;;2.45;;
49590;SDS011;35496;-21.974;-46.800;2023-07-13T12:56:44;4.18;;;3.00;;
49590;SDS011;35496;-21.974;-46.800;2023-07-13T12:59:15;4.35;;;2.00;;
49590;SDS011;35496;-21.974;-46.800;2023-07-13T13:01:42;4.22;;;1.92;;
49590;SDS011;35496;-21.974;-46.800;2023-07-13T13:04:09;5.65;;;2.80;;
49590;SDS011;35496;-21.974;-46.800;2023-07-13T13:06:36;4.80;;;2.22;;
49590;SDS011;35496;-21.974;-46.800;2023-07-13T13:09:03;7.43;;;2.50;;
49590;SDS011;35496;-21.974;-46.800;2023-07-13T13:11:30;10.82;;;3.30;;
49590;SDS011;35496;-21.974;-46.800;2023-07-13T13:13:57;14.13;;;3.42;;
49590;SDS011;35496;-21.974;-46.800;2023-07-13T13:16:26;5.78;;;3.08;;
49590;SDS011;35496;-21.974;-46.800;2023-07-13T13:18:57;2.85;;;2.58;;
49590;SDS011;35496;-21.974;-46.800;2023-07-13T13:21:24;4.53;;;3.00;;
49590;SDS011;35496;-21.974;-46.800;2023-07-13T13:23:51;17.75;;;2.95;;
49590;SDS011;35496;-21.974;-46.800;2023-07-13T13:26:19;4.68;;;2.78;;
49590;SDS011;35496;-21.974;-46.800;2023-07-13T13:28:45;4.90;;;2.85;;
49590;SDS011;35496;-21.974;-46.800;2023-07-13T13:31:13;8.18;;;2.60;;
49590;SDS011;35496;-21.974;-46.800;2023-07-13T13:33:43;4.13;;;2.70;;
49590;SDS011;35496;-21.974;-46.800;2023-07-13T13:36:20;6.00;;;2.75;;
49590;SDS011;35496;-21.974;-46.800;2023-07-13T13:38:47;5.88;;;3.22;;
49590;SDS011;35496;-21.974;-46.800;2023-07-13T13:41:14;5.03;;;1.98;;
49590;SDS011;35496;-21.974;-46.800;2023-07-13T13:43:40;4.68;;;2.13;;
49590;SDS011;35496;-21.974;-46.800;2023-07-13T13:46:17;4.00;;;2.10;;
49590;SDS011;35496;-21.974;-46.800;2023-07-13T13:48:44;10.05;;;2.78;;
49590;SDS011;35496;-21.974;-46.800;2023-07-13T13:53:39;3.95;;;2.28;;
49590;SDS011;35496;-21.974;-46.800;2023-07-13T13:56:06;6.68;;;2.70;;
49590;SDS011;35496;-21.974;-46.800;2023-07-13T13:58:32;3.78;;;2.10;;
49590;SDS011;35496;-21.974;-46.800;2023-07-13T14:00:58;5.53;;;2.42;;
49590;SDS011;35496;-21.974;-46.800;2023-07-13T14:03:24;10.07;;;2.72;;
49590;SDS011;35496;-21.974;-46.800;2023-07-13T14:05:51;4.68;;;2.55;;
49590;SDS011;35496;-21.974;-46.800;2023-07-13T14:08:18;5.95;;;2.97;;
49590;SDS011;35496;-21.974;-46.800;2023-07-13T14:10:46;12.05;;;3.05;;
49590;SDS011;35496;-21.974;-46.800;2023-07-13T14:13:19;4.65;;;2.80;;
49590;SDS011;35496;-21.974;-46.800;2023-07-13T14:15:46;5.82;;;2.22;;
49590;SDS011;35496;-21.974;-46.800;2023-07-13T14:18:13;8.85;;;2.30;;
49590;SDS011;35496;-21.974;-46.800;2023-07-13T14:20:46;6.63;;;2.50;;
49590;SDS011;35496;-21.974;-46.800;2023-07-13T14:23:13;10.50;;;2.55;;
49590;SDS011;35496;-21.974;-46.800;2023-07-13T14:25:39;5.35;;;3.08;;
49590;SDS011;35496;-21.974;-46.800;2023-07-13T14:28:25;6.80;;;2.20;;
49590;SDS011;35496;-21.974;-46.800;2023-07-13T14:30:51;4.07;;;2.25;;
49590;SDS011;35496;-21.974;-46.800;2023-07-13T14:33:18;6.18;;;2.53;;
49590;SDS011;35496;-21.974;-46.800;2023-07-13T14:35:44;6.55;;;3.40;;
49590;SDS011;35496;-21.974;-46.800;2023-07-13T14:38:14;5.40;;;3.42;;
49590;SDS011;35496;-21.974;-46.800;2023-07-13T14:40:41;5.83;;;2.30;;
49590;SDS011;35496;-21.974;-46.800;2023-07-13T14:43:10;8.55;;;2.92;;
49590;SDS011;35496;-21.974;-46.800;2023-07-13T14:45:38;12.48;;;3.03;;
49590;SDS011;35496;-21.974;-46.800;2023-07-13T14:48:26;7.45;;;2.60;;
49590;SDS011;35496;-21.974;-46.800;2023-07-13T14:50:55;5.57;;;2.70;;
49590;SDS011;35496;-21.974;-46.800;2023-07-13T14:53:22;5.47;;;2.65;;
49590;SDS011;35496;-21.974;-46.800;2023-07-13T14:55:48;7.07;;;2.42;;
49590;SDS011;35496;-21.974;-46.800;2023-07-13T14:58:14;4.53;;;2.45;;
49590;SDS011;35496;-21.974;-46.800;2023-07-13T15:00:41;11.60;;;3.08;;
49590;SDS011;35496;-21.974;-46.800;2023-07-13T15:03:12;6.50;;;2.63;;
49590;SDS011;35496;-21.974;-46.800;2023-07-13T15:05:41;3.72;;;2.38;;
49590;SDS011;35496;-21.974;-46.800;2023-07-13T15:08:07;4.38;;;2.53;;
49590;SDS011;35496;-21.974;-46.800;2023-07-13T15:10:34;4.40;;;2.58;;
49590;SDS011;35496;-21.974;-46.800;2023-07-13T15:13:12;6.85;;;2.92;;
49590;SDS011;35496;-21.974;-46.800;2023-07-13T15:15:39;9.35;;;3.05;;
49590;SDS011;35496;-21.974;-46.800;2023-07-13T15:18:07;4.88;;;2.33;;
49590;SDS011;35496;-21.974;-46.800;2023-07-13T15:20:35;9.38;;;2.40;;
49590;SDS011;35496;-21.974;-46.800;2023-07-13T15:23:01;9.80;;;2.72;;
49590;SDS011;35496;-21.974;-46.800;2023-07-13T15:25:28;2.65;;;2.10;;
49590;SDS011;35496;-21.974;-46.800;2023-07-13T15:27:56;4.38;;;2.75;;
49590;SDS011;35496;-21.974;-46.800;2023-07-13T15:30:23;5.95;;;2.55;;
49590;SDS011;35496;-21.974;-46.800;2023-07-13T15:32:51;3.28;;;2.25;;
49590;SDS011;35496;-21.974;-46.800;2023-07-13T15:35:18;7.65;;;2.35;;
49590;SDS011;35496;-21.974;-46.800;2023-07-13T15:37:45;5.20;;;2.97;;
49590;SDS011;35496;-21.974;-46.800;2023-07-13T15:40:12;2.80;;;2.13;;
49590;SDS011;35496;-21.974;-46.800;2023-07-13T15:42:39;4.57;;;2.05;;
49590;SDS011;35496;-21.974;-46.800;2023-07-13T15:47:42;5.68;;;1.90;;
49590;SDS011;35496;-21.974;-46.800;2023-07-13T15:50:13;3.72;;;1.92;;
49590;SDS011;35496;-21.974;-46.800;2023-07-13T15:52:40;4.68;;;3.03;;
49590;SDS011;35496;-21.974;-46.800;2023-07-13T15:55:10;7.05;;;2.03;;
49590;SDS011;35496;-21.974;-46.800;2023-07-13T15:57:37;3.67;;;2.00;;
49590;SDS011;35496;-21.974;-46.800;2023-07-13T16:00:09;5.03;;;2.45;;